createdAt,value
2023-02-15T00:01:55.972Z,42.30
2023-02-15T00:04:27.549Z,44.50
2023-02-15T00:06:54.336Z,41.97
2023-02-15T00:09:22.800Z,43.30
2023-02-15T00:11:50.843Z,41.28
2023-02-15T00:14:23.968Z,42.05
2023-02-15T00:16:52.837Z,41.70
2023-02-15T00:19:22.429Z,40.47
2023-02-15T00:21:50.104Z,36.78
2023-02-15T00:24:20.411Z,36.83
2023-02-15T00:26:51.226Z,30.67
2023-02-15T00:29:21.283Z,36.20
2023-02-15T00:31:48.525Z,41.15
2023-02-15T00:34:21.489Z,40.22
2023-02-15T00:36:48.350Z,33.22
2023-02-15T00:39:16.819Z,36.95
2023-02-15T00:41:44.400Z,37.63
2023-02-15T00:44:14.028Z,40.78
2023-02-15T00:46:42.867Z,38.72
2023-02-15T00:49:12.687Z,37.28
2023-02-15T00:51:40.251Z,42.13
2023-02-15T00:54:10.012Z,38.90
2023-02-15T00:56:37.046Z,36.08
2023-02-15T00:59:11.799Z,39.80
2023-02-15T01:01:38.720Z,32.95
2023-02-15T01:04:07.015Z,36.22
2023-02-15T01:06:34.137Z,40.38
2023-02-15T01:09:01.224Z,40.17
2023-02-15T01:11:28.079Z,41.92
2023-02-15T01:13:57.505Z,40.25
2023-02-15T01:16:25.829Z,41.53
2023-02-15T01:18:53.021Z,38.70
2023-02-15T01:21:24.053Z,45.78
2023-02-15T01:23:50.993Z,45.20
2023-02-15T01:26:19.582Z,44.88
2023-02-15T01:28:47.129Z,41.83
2023-02-15T01:31:16.188Z,40.60
2023-02-15T01:33:43.227Z,39.65
2023-02-15T01:36:10.328Z,40.67
2023-02-15T01:38:38.497Z,39.78
2023-02-15T01:41:05.287Z,38.50
2023-02-15T01:43:41.440Z,50.33
2023-02-15T01:46:10.054Z,46.22
2023-02-15T01:48:41.858Z,41.45
2023-02-15T01:51:10.116Z,42.42
2023-02-15T01:53:43.737Z,46.78
2023-02-15T01:56:14.617Z,44.97
2023-02-15T01:58:43.071Z,41.95
2023-02-15T02:01:10.103Z,41.92
2023-02-15T02:03:44.243Z,49.85
2023-02-15T02:06:11.037Z,46.92
2023-02-15T02:08:39.239Z,44.72
2023-02-15T02:11:11.633Z,44.05
2023-02-15T02:13:39.048Z,41.42
2023-02-15T02:16:12.653Z,50.03
2023-02-15T02:18:53.836Z,40.75
2023-02-15T02:22:03.600Z,46.03
2023-02-15T02:24:57.477Z,44.65
2023-02-15T02:27:48.001Z,44.88
2023-02-15T02:30:56.273Z,39.93
2023-02-15T02:33:52.478Z,36.50
2023-02-15T02:36:26.569Z,39.55
2023-02-15T02:39:07.414Z,39.15
2023-02-15T02:41:46.808Z,35.70
2023-02-15T02:44:24.464Z,35.83
2023-02-15T02:46:55.693Z,36.90
2023-02-15T02:49:39.908Z,34.08
2023-02-15T02:52:08.497Z,37.10
2023-02-15T02:54:39.679Z,37.00
2023-02-15T02:59:42.899Z,42.65
2023-02-15T03:02:14.714Z,44.28
2023-02-15T03:04:48.814Z,52.13
2023-02-15T03:07:22.168Z,53.10
2023-02-15T03:09:53.249Z,54.28
2023-02-15T03:12:28.187Z,51.55
2023-02-15T03:15:01.597Z,52.35
2023-02-15T03:17:32.634Z,52.80
2023-02-15T03:22:46.488Z,49.20
2023-02-15T03:25:19.476Z,45.05
2023-02-15T03:27:50.172Z,56.08
2023-02-15T03:30:22.312Z,67.20
2023-02-15T03:32:53.710Z,60.22
2023-02-15T03:35:27.627Z,52.00
2023-02-15T03:38:00.280Z,62.78
2023-02-15T03:40:32.610Z,54.63
2023-02-15T03:43:04.427Z,50.25
2023-02-15T03:45:34.553Z,53.55
2023-02-15T03:48:02.905Z,49.13
2023-02-15T03:50:34.588Z,60.88
2023-02-15T03:53:04.929Z,57.20
2023-02-15T03:55:34.184Z,58.77
2023-02-15T03:58:01.350Z,65.50
2023-02-15T04:00:28.775Z,72.90
2023-02-15T04:03:24.410Z,74.32
2023-02-15T04:05:53.214Z,65.55
2023-02-15T04:08:20.253Z,64.18
2023-02-15T04:10:46.949Z,63.58
2023-02-15T04:13:13.803Z,65.05
2023-02-15T04:15:44.038Z,74.03
2023-02-15T04:18:12.049Z,72.93
2023-02-15T04:20:39.377Z,68.82
2023-02-15T04:23:12.127Z,63.80
2023-02-15T04:25:40.006Z,66.65
2023-02-15T04:28:07.342Z,58.88
2023-02-15T04:30:40.465Z,60.13
2023-02-15T04:33:12.929Z,55.60
2023-02-15T04:35:40.111Z,52.40
2023-02-15T04:38:08.682Z,61.13
2023-02-15T04:40:36.004Z,53.35
2023-02-15T04:43:04.969Z,52.38
2023-02-15T04:45:31.762Z,56.63
2023-02-15T04:48:01.084Z,50.10
2023-02-15T04:50:27.783Z,48.67
2023-02-15T04:52:55.015Z,45.35
2023-02-15T04:55:23.183Z,48.17
2023-02-15T04:57:53.037Z,48.90
2023-02-15T05:00:20.509Z,47.28
2023-02-15T05:02:47.259Z,54.63
2023-02-15T05:05:14.293Z,54.97
2023-02-15T05:07:41.702Z,51.92
2023-02-15T05:10:10.748Z,45.28
2023-02-15T05:12:39.389Z,47.20
2023-02-15T05:15:07.020Z,48.17
2023-02-15T05:17:33.794Z,46.80
2023-02-15T05:20:01.354Z,46.35
2023-02-15T05:22:31.400Z,47.60
2023-02-15T05:24:59.337Z,43.80
2023-02-15T05:27:28.575Z,44.25
2023-02-15T05:29:57.519Z,44.28
2023-02-15T05:32:24.848Z,44.33
2023-02-15T05:34:52.271Z,44.70
2023-02-15T05:37:22.483Z,40.22
2023-02-15T05:39:49.558Z,46.70
2023-02-15T05:42:53.595Z,52.05
2023-02-15T05:45:29.504Z,55.08
2023-02-15T05:47:56.286Z,58.70
2023-02-15T05:50:23.021Z,46.95
2023-02-15T05:52:52.311Z,52.97
2023-02-15T05:55:19.996Z,53.55
2023-02-15T05:57:49.953Z,49.25
2023-02-15T06:00:18.944Z,45.30
2023-02-15T06:02:48.516Z,46.53
2023-02-15T06:05:15.440Z,51.90
2023-02-15T06:07:46.831Z,45.80
2023-02-15T06:10:14.566Z,56.65
2023-02-15T06:12:41.239Z,52.35
2023-02-15T06:15:11.346Z,67.43
2023-02-15T06:17:38.302Z,63.90
2023-02-15T06:20:08.643Z,69.13
2023-02-15T06:22:36.144Z,89.30
2023-02-15T06:25:03.244Z,77.50
2023-02-15T06:27:30.896Z,75.95
2023-02-15T06:29:57.998Z,85.82
2023-02-15T06:32:24.990Z,97.20
2023-02-15T06:34:53.250Z,122.53
2023-02-15T06:37:25.678Z,107.65
2023-02-15T06:39:52.439Z,110.55
2023-02-15T06:42:19.717Z,110.75
2023-02-15T06:44:46.725Z,99.38
2023-02-15T06:47:13.715Z,102.75
2023-02-15T06:49:40.592Z,96.45
2023-02-15T06:52:07.570Z,93.85
2023-02-15T06:54:35.986Z,108.85
2023-02-15T06:57:03.045Z,104.18
2023-02-15T06:59:32.042Z,97.47
2023-02-15T07:01:59.222Z,120.20
2023-02-15T07:04:29.476Z,92.55
2023-02-15T07:06:57.199Z,84.38
2023-02-15T07:09:26.396Z,102.80
2023-02-15T07:11:54.708Z,92.60
2023-02-15T07:14:21.576Z,97.40
2023-02-15T07:16:48.322Z,93.82
2023-02-15T07:19:15.345Z,94.18
2023-02-15T07:21:42.175Z,84.85
2023-02-15T07:24:08.941Z,95.95
2023-02-15T07:26:36.692Z,94.80
2023-02-15T07:29:08.272Z,98.95
2023-02-15T07:31:35.436Z,105.32
2023-02-15T07:34:02.477Z,98.30
2023-02-15T07:36:29.830Z,116.43
2023-02-15T07:38:56.874Z,97.85
2023-02-15T07:41:24.078Z,102.75
2023-02-15T07:43:50.965Z,109.78
2023-02-15T07:46:19.739Z,88.28
2023-02-15T07:48:48.634Z,100.40
2023-02-15T07:51:18.632Z,123.85
2023-02-15T07:53:47.715Z,114.03
2023-02-15T07:56:16.664Z,95.70
2023-02-15T07:58:44.552Z,90.53
2023-02-15T08:01:11.449Z,82.18
2023-02-15T08:03:40.289Z,91.22
2023-02-15T08:06:07.803Z,91.88
2023-02-15T08:08:35.753Z,98.72
2023-02-15T08:11:04.575Z,88.78
2023-02-15T08:13:31.348Z,91.25
2023-02-15T08:15:58.166Z,90.18
2023-02-15T08:18:25.167Z,89.70
2023-02-15T08:20:53.358Z,96.35
2023-02-15T08:23:20.538Z,83.68
2023-02-15T08:25:47.804Z,94.32
2023-02-15T08:28:15.080Z,96.55
2023-02-15T08:30:41.938Z,92.22
2023-02-15T08:33:08.733Z,102.18
2023-02-15T08:35:35.667Z,102.78
2023-02-15T08:38:03.951Z,99.25
2023-02-15T08:40:30.722Z,97.20
2023-02-15T08:42:57.709Z,86.10
2023-02-15T08:45:24.642Z,99.90
2023-02-15T08:47:51.688Z,97.00
2023-02-15T08:50:18.986Z,92.57
2023-02-15T08:52:45.975Z,106.15
2023-02-15T08:55:14.835Z,101.80
2023-02-15T08:57:48.424Z,86.53
2023-02-15T09:00:20.221Z,101.55
2023-02-15T09:02:47.019Z,97.95
2023-02-15T09:05:17.799Z,106.18
2023-02-15T09:07:47.891Z,98.60
2023-02-15T09:10:20.277Z,105.22
2023-02-15T09:12:47.625Z,105.70
2023-02-15T09:15:15.067Z,97.75
2023-02-15T09:17:47.271Z,107.32
2023-02-15T09:20:20.789Z,100.93
2023-02-15T09:22:55.053Z,108.28
2023-02-15T09:25:35.143Z,100.95
2023-02-15T09:28:02.264Z,99.80
2023-02-15T09:30:29.400Z,101.97
2023-02-15T09:32:56.646Z,107.97
2023-02-15T09:35:23.493Z,105.10
2023-02-15T09:37:51.218Z,96.07
2023-02-15T09:40:19.175Z,99.90
2023-02-15T09:43:08.396Z,100.28
2023-02-15T09:45:52.450Z,101.18
2023-02-15T09:48:40.967Z,106.28
2023-02-15T09:51:37.525Z,99.97
2023-02-15T09:54:16.559Z,97.03
2023-02-15T09:56:51.135Z,91.15
2023-02-15T09:59:30.816Z,96.93
2023-02-15T10:02:12.205Z,90.28
2023-02-15T10:07:33.142Z,89.63
2023-02-15T10:10:13.475Z,90.70
2023-02-15T10:13:23.204Z,80.53
2023-02-15T10:16:17.790Z,93.10
2023-02-15T10:18:56.885Z,79.97
2023-02-15T10:21:35.630Z,82.60
2023-02-15T10:24:48.736Z,85.93
2023-02-15T10:27:21.082Z,83.20
2023-02-15T10:29:59.963Z,76.10
2023-02-15T10:40:11.739Z,81.15
2023-02-15T10:43:32.512Z,82.28
2023-02-15T10:50:02.661Z,76.60
2023-02-15T10:56:29.450Z,75.90
2023-02-15T11:12:45.790Z,70.78
2023-02-15T11:24:54.907Z,73.03
2023-02-15T11:27:25.395Z,65.20
2023-02-15T11:33:29.576Z,63.25
2023-02-15T11:36:02.130Z,62.83
2023-02-15T11:38:38.919Z,62.20
2023-02-15T11:41:14.766Z,67.18
2023-02-15T11:43:47.400Z,65.07
2023-02-15T11:46:17.084Z,62.40
2023-02-15T11:49:01.694Z,67.68
2023-02-15T11:51:28.827Z,64.75
2023-02-15T11:53:57.639Z,58.30
2023-02-15T11:56:25.915Z,68.60
2023-02-15T11:59:01.301Z,68.45
2023-02-15T12:01:32.835Z,66.63
2023-02-15T12:04:04.184Z,60.63
2023-02-15T12:09:31.327Z,56.72
2023-02-15T12:12:22.430Z,56.50
2023-02-15T12:14:53.322Z,52.88
2023-02-15T12:17:25.998Z,55.85
2023-02-15T12:19:56.165Z,55.38
2023-02-15T12:22:28.676Z,51.17
2023-02-15T12:25:00.627Z,49.63
2023-02-15T12:27:30.271Z,52.78
2023-02-15T12:30:03.896Z,49.30
2023-02-15T12:32:37.316Z,47.33
2023-02-15T12:35:23.091Z,47.92
2023-02-15T12:38:32.581Z,52.30
2023-02-15T12:41:04.139Z,51.38
2023-02-15T12:43:46.614Z,44.10
2023-02-15T12:46:25.132Z,50.25
2023-02-15T12:49:10.824Z,46.05
2023-02-15T12:51:46.064Z,42.50
2023-02-15T12:54:38.985Z,48.25
2023-02-15T12:57:32.868Z,43.78
2023-02-15T13:00:04.605Z,41.95
2023-02-15T13:02:47.166Z,47.97
2023-02-15T13:05:24.050Z,48.15
2023-02-15T13:07:54.427Z,50.30
2023-02-15T13:10:27.933Z,49.55
2023-02-15T13:12:57.731Z,47.75
2023-02-15T13:15:37.925Z,50.33
2023-02-15T13:18:12.102Z,51.72
2023-02-15T13:20:45.666Z,46.53
2023-02-15T13:23:26.538Z,54.72
2023-02-15T13:25:59.070Z,50.85
2023-02-15T13:28:39.370Z,54.25
2023-02-15T13:31:16.109Z,49.60
2023-02-15T13:33:50.243Z,47.47
2023-02-15T13:36:24.920Z,50.50
2023-02-15T13:39:15.474Z,50.90
2023-02-15T13:41:55.444Z,49.17
2023-02-15T13:44:42.844Z,48.05
2023-02-15T13:47:42.805Z,43.15
2023-02-15T13:50:36.206Z,53.58
2023-02-15T13:53:25.957Z,44.10
2023-02-15T13:56:07.960Z,46.63
2023-02-15T13:59:04.949Z,46.47
2023-02-15T14:01:46.904Z,49.20
2023-02-15T14:04:41.956Z,46.50
2023-02-15T14:07:32.273Z,45.95
2023-02-15T14:10:11.780Z,47.42
2023-02-15T14:12:53.311Z,44.85
2023-02-15T14:18:05.374Z,44.45
2023-02-15T14:20:46.110Z,45.50
2023-02-15T14:23:22.532Z,48.40
2023-02-15T14:25:56.034Z,46.58
2023-02-15T14:28:30.068Z,52.95
2023-02-15T14:30:57.785Z,53.25
2023-02-15T14:33:40.193Z,47.00
2023-02-15T14:36:17.471Z,49.95
2023-02-15T14:38:56.407Z,50.42
2023-02-15T14:41:33.211Z,47.22
2023-02-15T14:44:10.240Z,45.92
2023-02-15T14:46:49.303Z,48.25
2023-02-15T14:49:27.779Z,44.65
2023-02-15T14:51:59.804Z,43.03
2023-02-15T14:54:55.273Z,40.72
2023-02-15T14:57:25.128Z,41.85
2023-02-15T14:59:58.162Z,40.10
2023-02-15T15:02:29.183Z,42.67
2023-02-15T15:05:03.512Z,43.17
2023-02-15T15:07:38.663Z,43.65
2023-02-15T15:10:28.376Z,45.03
2023-02-15T15:12:57.994Z,48.63
2023-02-15T15:15:35.349Z,44.90
2023-02-15T15:18:05.215Z,51.65
2023-02-15T15:20:46.635Z,45.08
2023-02-15T15:23:44.750Z,47.50
2023-02-15T15:26:31.378Z,45.58
2023-02-15T15:29:02.858Z,48.08
2023-02-15T15:31:46.106Z,50.15
2023-02-15T15:34:44.793Z,45.83
2023-02-15T15:37:44.010Z,47.15
2023-02-15T15:40:49.566Z,53.38
2023-02-15T15:43:38.072Z,49.30
2023-02-15T15:46:24.739Z,49.30
2023-02-15T15:48:53.296Z,51.15
2023-02-15T15:51:24.410Z,46.38
2023-02-15T15:53:52.546Z,50.13
2023-02-15T15:56:25.526Z,47.72
2023-02-15T15:58:55.069Z,48.72
2023-02-15T16:01:27.806Z,47.78
2023-02-15T16:03:56.975Z,46.65
2023-02-15T16:06:35.665Z,48.42
2023-02-15T16:09:17.609Z,55.35
2023-02-15T16:16:14.068Z,48.05
2023-02-15T16:19:16.345Z,50.10
2023-02-15T16:21:49.589Z,49.30
2023-02-15T16:24:33.792Z,46.75
2023-02-15T16:27:23.948Z,48.72
2023-02-15T16:29:56.059Z,54.50
2023-02-15T16:32:26.564Z,53.03
2023-02-15T16:34:59.180Z,56.10
2023-02-15T16:37:32.536Z,59.63
2023-02-15T16:39:59.795Z,51.28
2023-02-15T16:42:27.154Z,51.63
2023-02-15T16:44:58.468Z,57.80
2023-02-15T16:50:18.502Z,54.15
2023-02-15T16:52:46.873Z,59.88
2023-02-15T16:55:23.003Z,54.83
2023-02-15T16:57:50.620Z,58.42
2023-02-15T17:00:27.682Z,59.10
2023-02-15T17:03:27.784Z,55.83
2023-02-15T17:06:27.773Z,58.30
2023-02-15T17:09:04.491Z,60.22
2023-02-15T17:11:36.733Z,62.97
2023-02-15T17:14:20.467Z,57.08
2023-02-15T17:16:53.326Z,66.68
2023-02-15T17:19:25.496Z,70.57
2023-02-15T17:21:55.406Z,60.95
2023-02-15T17:24:38.554Z,60.00
2023-02-15T17:27:16.263Z,68.25
2023-02-15T17:30:01.084Z,64.93
2023-02-15T17:32:30.930Z,71.35
2023-02-15T17:35:21.878Z,66.90
2023-02-15T17:37:52.014Z,75.87
2023-02-15T17:40:25.588Z,74.88
2023-02-15T17:42:54.031Z,69.43
2023-02-15T17:45:28.163Z,70.07
2023-02-15T17:47:55.807Z,74.90
2023-02-15T17:50:26.675Z,74.28
2023-02-15T17:52:57.219Z,65.93
2023-02-15T17:55:25.025Z,72.10
2023-02-15T17:57:52.106Z,69.07
2023-02-15T18:00:19.360Z,66.38
2023-02-15T18:02:48.422Z,66.15
2023-02-15T18:05:16.681Z,76.85
2023-02-15T18:07:49.890Z,65.07
2023-02-15T18:10:18.863Z,70.45
2023-02-15T18:12:47.279Z,71.43
2023-02-15T18:15:14.836Z,74.85
2023-02-15T18:17:46.975Z,75.38
2023-02-15T18:20:19.604Z,71.28
2023-02-15T18:22:48.031Z,72.13
2023-02-15T18:25:17.626Z,75.57
2023-02-15T18:27:44.527Z,72.05
2023-02-15T18:30:15.741Z,68.00
2023-02-15T18:32:43.412Z,72.22
2023-02-15T18:35:15.048Z,76.78
2023-02-15T18:37:41.967Z,76.80
2023-02-15T18:40:15.443Z,81.05
2023-02-15T18:42:43.489Z,75.18
2023-02-15T18:45:15.848Z,82.68
2023-02-15T18:47:42.847Z,75.38
2023-02-15T18:50:09.854Z,76.45
2023-02-15T18:52:38.596Z,85.47
2023-02-15T18:55:18.048Z,76.85
2023-02-15T18:57:45.485Z,81.20
2023-02-15T19:00:16.119Z,79.28
2023-02-15T19:02:43.416Z,79.68
2023-02-15T19:05:10.580Z,82.82
2023-02-15T19:07:38.347Z,75.07
2023-02-15T19:10:08.463Z,91.75
2023-02-15T19:12:36.548Z,87.15
2023-02-15T19:15:03.489Z,79.30
2023-02-15T19:17:30.294Z,81.82
2023-02-15T19:19:57.359Z,84.53
2023-02-15T19:22:27.120Z,79.45
2023-02-15T19:24:56.000Z,81.15
2023-02-15T19:27:26.487Z,76.63
2023-02-15T19:29:57.266Z,80.93
2023-02-15T19:32:24.298Z,83.18
2023-02-15T19:34:51.730Z,77.38
2023-02-15T19:37:24.651Z,85.60
2023-02-15T19:39:52.182Z,79.28
2023-02-15T19:42:22.160Z,81.13
2023-02-15T19:44:48.991Z,80.10
2023-02-15T19:47:18.078Z,77.53
2023-02-15T19:49:46.200Z,75.88
2023-02-15T19:52:17.582Z,78.60
2023-02-15T19:57:14.939Z,77.88
2023-02-15T19:59:42.221Z,80.97
2023-02-15T20:02:13.767Z,77.53
2023-02-15T20:04:42.421Z,78.65
2023-02-15T20:07:18.092Z,74.38
2023-02-15T20:09:46.227Z,80.93
2023-02-15T20:12:21.243Z,76.53
2023-02-15T20:14:48.305Z,74.93
2023-02-15T20:17:20.198Z,79.57
2023-02-15T20:19:48.917Z,78.70
2023-02-15T20:22:24.992Z,81.60
2023-02-15T20:24:53.417Z,78.07
2023-02-15T20:27:20.407Z,75.07
2023-02-15T20:29:49.176Z,82.20
2023-02-15T20:32:16.345Z,76.07
2023-02-15T20:34:43.241Z,79.53
2023-02-15T20:37:24.056Z,77.72
2023-02-15T20:39:52.351Z,77.30
2023-02-15T20:42:19.798Z,78.70
2023-02-15T20:44:46.739Z,79.40
2023-02-15T20:47:14.384Z,81.28
2023-02-15T20:49:41.318Z,79.65
2023-02-15T20:52:22.712Z,87.35
2023-02-15T20:57:30.222Z,82.40
2023-02-15T20:59:57.175Z,79.28
2023-02-15T21:02:26.085Z,81.97
2023-02-15T21:05:19.872Z,78.43
2023-02-15T21:07:54.253Z,78.13
2023-02-15T21:11:03.691Z,84.05
2023-02-15T21:13:50.602Z,81.88
2023-02-15T21:16:24.344Z,74.50
2023-02-15T21:18:57.359Z,79.15
2023-02-15T21:21:53.921Z,82.00
2023-02-15T21:27:35.783Z,82.05
2023-02-15T21:30:07.137Z,79.70
2023-02-15T21:35:03.274Z,78.07
2023-02-15T21:37:36.242Z,79.18
2023-02-15T21:40:16.788Z,78.63
2023-02-15T21:42:45.376Z,80.80
2023-02-15T21:45:17.417Z,77.40
2023-02-15T21:47:45.427Z,84.18
2023-02-15T21:50:15.393Z,82.63
2023-02-15T21:52:43.355Z,84.88
2023-02-15T21:55:14.535Z,97.38
2023-02-15T21:57:42.650Z,79.40
2023-02-15T22:00:14.772Z,85.55
2023-02-15T22:02:43.323Z,79.75
2023-02-15T22:05:13.945Z,89.13
2023-02-15T22:07:40.631Z,83.55
2023-02-15T22:10:07.940Z,84.97
2023-02-15T22:12:36.674Z,86.70
2023-02-15T22:15:04.732Z,86.07
2023-02-15T22:17:31.962Z,84.60
2023-02-15T22:19:58.808Z,88.28
2023-02-15T22:22:26.857Z,83.22
2023-02-15T22:24:53.625Z,83.38
2023-02-15T22:27:22.806Z,85.93
2023-02-15T22:29:54.730Z,89.70
2023-02-15T22:32:24.319Z,86.32
2023-02-15T22:34:52.522Z,82.13
2023-02-15T22:37:19.669Z,92.47
2023-02-15T22:39:46.828Z,81.32
2023-02-15T22:42:22.647Z,89.18
2023-02-15T22:44:49.366Z,96.32
2023-02-15T22:47:21.206Z,88.95
2023-02-15T22:49:48.016Z,84.53
2023-02-15T22:52:15.801Z,85.00
2023-02-15T22:54:43.908Z,87.82
2023-02-15T22:57:18.337Z,81.28
2023-02-15T22:59:48.322Z,82.63
2023-02-15T23:02:15.612Z,84.88
2023-02-15T23:04:43.834Z,84.20
2023-02-15T23:07:14.336Z,83.05
2023-02-15T23:09:41.354Z,85.28
2023-02-15T23:12:25.459Z,82.53
2023-02-15T23:14:54.435Z,85.97
2023-02-15T23:17:21.898Z,82.82
2023-02-15T23:19:50.496Z,86.78
2023-02-15T23:22:21.472Z,83.35
2023-02-15T23:24:52.634Z,89.05
2023-02-15T23:27:19.371Z,83.97
2023-02-15T23:29:46.295Z,81.78
2023-02-15T23:32:15.347Z,81.18
2023-02-15T23:34:43.101Z,83.07
2023-02-15T23:37:13.081Z,81.45
2023-02-15T23:39:40.176Z,83.65
2023-02-15T23:42:13.564Z,87.00
2023-02-15T23:44:42.179Z,91.22
2023-02-15T23:47:21.704Z,90.70
2023-02-15T23:49:48.767Z,83.32
2023-02-15T23:52:16.905Z,78.47
2023-02-15T23:54:43.657Z,84.13
2023-02-15T23:57:14.205Z,88.53
2023-02-15T23:59:43.717Z,85.60
